Time;durP1;ratioP1;P1;durP2;ratioP2;P2;SDS_P1;SDS_P2;PMS_P1;PMS_P2;Temp;Humidity;BMP_temperature;BMP_pressure;BME280_temperature;BME280_humidity;BME280_pressure;Samples;Min_cycle;Max_cycle;Signal;HPM_P1;HPM_P2
2022/07/24 00:01:36;;;;;;;;;15.67;11.67;;;;;;;;5038054;28;45445;-75
2022/07/24 00:04:02;;;;;;;;;12.33;12.33;;;;;;;;5037460;28;45357;-74
2022/07/24 00:06:28;;;;;;;;;14.00;12.33;;;;;;;;5038005;28;45572;-75
2022/07/24 00:08:53;;;;;;;;;16.33;14.33;;;;;;;;5038051;28;45421;-74
2022/07/24 00:11:18;;;;;;;;;17.33;15.67;;;;;;;;5037616;28;45586;-75
2022/07/24 00:13:43;;;;;;;;;21.00;16.33;;;;;;;;5037925;28;45361;-75
2022/07/24 00:16:09;;;;;;;;;18.33;18.33;;;;;;;;5037838;28;45365;-74
2022/07/24 00:18:34;;;;;;;;;20.67;17.67;;;;;;;;5037903;28;45160;-75
2022/07/24 00:21:00;;;;;;;;;20.67;20.00;;;;;;;;5037614;28;45333;-75
2022/07/24 00:23:25;;;;;;;;;23.00;20.67;;;;;;;;5037635;28;45287;-74
2022/07/24 00:25:51;;;;;;;;;27.67;24.33;;;;;;;;5037822;28;45408;-74
2022/07/24 00:28:16;;;;;;;;;38.67;33.67;;;;;;;;5037578;28;45343;-74
2022/07/24 00:30:42;;;;;;;;;42.33;30.67;;;;;;;;5037530;28;45498;-74
2022/07/24 00:33:07;;;;;;;;;33.33;30.00;;;;;;;;5037431;28;45190;-74
2022/07/24 00:35:32;;;;;;;;;37.00;31.00;;;;;;;;5036371;28;45216;-74
2022/07/24 00:37:57;;;;;;;;;35.00;27.33;;;;;;;;5037780;28;45251;-74
2022/07/24 00:40:24;;;;;;;;;20.00;19.33;;;;;;;;5037156;28;46372;-74
2022/07/24 00:42:50;;;;;;;;;17.00;15.00;;;;;;;;5037568;28;45473;-75
2022/07/24 00:45:15;;;;;;;;;21.67;15.67;;;;;;;;5037463;28;45302;-73
2022/07/24 00:47:40;;;;;;;;;15.00;14.67;;;;;;;;5037664;28;45325;-75
2022/07/24 00:50:06;;;;;;;;;16.33;14.00;;;;;;;;5037251;28;46138;-75
2022/07/24 00:52:31;;;;;;;;;13.67;13.67;;;;;;;;5037155;28;45477;-75
2022/07/24 00:54:56;;;;;;;;;14.00;14.00;;;;;;;;5037474;28;45290;-74
2022/07/24 00:57:22;;;;;;;;;13.67;12.67;;;;;;;;5037220;28;45667;-74
2022/07/24 00:59:47;;;;;;;;;5.67;5.00;;;;;;;;5037120;28;47168;-75
2022/07/24 01:02:12;;;;;;;;;30.00;25.00;;;;;;;;5036799;28;45285;-74
2022/07/24 01:04:38;;;;;;;;;10.67;9.33;;;;;;;;5037059;28;45443;-75
2022/07/24 01:07:03;;;;;;;;;16.00;11.67;;;;;;;;5037526;28;45314;-76
2022/07/24 01:09:29;;;;;;;;;13.00;10.67;;;;;;;;5036903;28;47315;-75
2022/07/24 01:11:55;;;;;;;;;9.33;8.33;;;;;;;;5036915;28;45411;-75
2022/07/24 01:14:20;;;;;;;;;16.33;9.67;;;;;;;;5037139;28;45380;-76
2022/07/24 01:16:45;;;;;;;;;12.00;9.33;;;;;;;;5037037;28;45232;-75
2022/07/24 01:19:10;;;;;;;;;14.33;12.00;;;;;;;;5036894;28;46103;-75
2022/07/24 01:21:36;;;;;;;;;17.00;13.33;;;;;;;;5036945;28;45504;-75
2022/07/24 01:24:01;;;;;;;;;12.67;11.00;;;;;;;;5037051;28;45349;-75
2022/07/24 01:26:26;;;;;;;;;18.33;16.33;;;;;;;;5037074;28;45327;-74
2022/07/24 01:28:51;;;;;;;;;13.33;12.67;;;;;;;;5036509;28;47392;-74
2022/07/24 01:31:17;;;;;;;;;13.00;11.33;;;;;;;;5036804;28;45276;-74
2022/07/24 01:33:42;;;;;;;;;16.33;14.33;;;;;;;;5036881;28;45448;-74
2022/07/24 01:36:07;;;;;;;;;16.67;13.00;;;;;;;;5037141;28;45209;-75
2022/07/24 01:38:33;;;;;;;;;13.00;13.00;;;;;;;;5036783;28;45409;-74
2022/07/24 01:40:58;;;;;;;;;17.67;14.00;;;;;;;;5036627;28;45234;-74
2022/07/24 01:43:23;;;;;;;;;15.00;11.67;;;;;;;;5036880;28;45282;-74
2022/07/24 01:45:48;;;;;;;;;19.33;17.33;;;;;;;;5019034;28;45504;-74
2022/07/24 01:48:13;;;;;;;;;18.67;16.33;;;;;;;;5039933;28;46682;-74
2022/07/24 01:50:39;;;;;;;;;15.33;14.33;;;;;;;;5040116;28;45390;-74
2022/07/24 01:53:04;;;;;;;;;14.33;13.67;;;;;;;;5040059;28;45304;-74
2022/07/24 01:55:30;;;;;;;;;17.67;11.33;;;;;;;;5040319;28;45509;-74
2022/07/24 01:57:55;;;;;;;;;14.67;13.33;;;;;;;;5039601;28;46159;-74
2022/07/24 02:00:20;;;;;;;;;12.67;12.67;;;;;;;;5039748;28;45306;-74
2022/07/24 02:02:46;;;;;;;;;18.00;15.67;;;;;;;;5039714;28;45314;-74
2022/07/24 02:05:12;;;;;;;;;17.67;13.00;;;;;;;;5040004;28;45482;-75
2022/07/24 02:07:38;;;;;;;;;17.67;13.67;;;;;;;;5039938;28;46471;-75
2022/07/24 02:10:04;;;;;;;;;15.33;15.33;;;;;;;;5039700;28;45239;-75
2022/07/24 02:12:29;;;;;;;;;16.33;13.33;;;;;;;;5039829;28;45445;-75
2022/07/24 02:14:54;;;;;;;;;14.67;14.00;;;;;;;;5039774;28;45425;-76
2022/07/24 02:17:19;;;;;;;;;14.33;11.00;;;;;;;;5039489;28;45353;-75
2022/07/24 02:19:44;;;;;;;;;11.67;11.67;;;;;;;;5039492;28;45199;-75
2022/07/24 02:22:10;;;;;;;;;16.67;14.33;;;;;;;;5039577;28;45222;-75
2022/07/24 02:24:35;;;;;;;;;12.33;12.33;;;;;;;;5040050;28;45215;-75
2022/07/24 02:27:01;;;;;;;;;16.67;11.67;;;;;;;;5039287;28;45663;-74
2022/07/24 02:29:26;;;;;;;;;12.00;12.00;;;;;;;;5039394;28;45258;-74
2022/07/24 02:31:52;;;;;;;;;15.00;10.33;;;;;;;;5039602;28;45342;-74
2022/07/24 02:34:17;;;;;;;;;12.00;10.67;;;;;;;;5039772;28;45344;-75
2022/07/24 02:36:42;;;;;;;;;15.67;14.00;;;;;;;;5039226;28;46709;-74
2022/07/24 02:39:08;;;;;;;;;14.00;11.00;;;;;;;;5039269;28;45351;-74
2022/07/24 02:41:33;;;;;;;;;14.33;13.33;;;;;;;;5039326;28;45244;-74
2022/07/24 02:43:58;;;;;;;;;12.00;10.33;;;;;;;;5039331;28;45329;-75
2022/07/24 02:46:24;;;;;;;;;15.33;13.00;;;;;;;;5039141;28;46057;-74
2022/07/24 02:48:49;;;;;;;;;12.33;12.33;;;;;;;;5039168;28;45330;-74
2022/07/24 02:51:14;;;;;;;;;16.33;13.33;;;;;;;;5039273;28;45234;-74
2022/07/24 02:53:39;;;;;;;;;10.00;9.67;;;;;;;;5039261;28;45245;-74
2022/07/24 02:56:05;;;;;;;;;12.33;10.67;;;;;;;;5039021;28;47564;-74
2022/07/24 02:58:30;;;;;;;;;13.00;12.33;;;;;;;;5037755;28;45310;-74
2022/07/24 03:00:55;;;;;;;;;12.67;12.33;;;;;;;;5039222;28;45389;-74
2022/07/24 03:03:21;;;;;;;;;16.00;14.50;;;;;;;;5038863;28;45229;-74
2022/07/24 03:05:46;;;;;;;;;12.33;11.67;;;;;;;;5038759;28;47269;-74
2022/07/24 03:08:11;;;;;;;;;12.67;12.00;;;;;;;;5038966;28;45437;-74
2022/07/24 03:10:37;;;;;;;;;14.00;13.33;;;;;;;;5038917;28;45285;-74
2022/07/24 03:13:02;;;;;;;;;13.33;11.33;;;;;;;;5038976;28;45412;-73
2022/07/24 03:15:28;;;;;;;;;10.33;10.33;;;;;;;;5038523;28;47320;-73
2022/07/24 03:17:54;;;;;;;;;11.67;11.33;;;;;;;;5038640;28;45511;-74
2022/07/24 03:20:21;;;;;;;;;14.33;13.33;;;;;;;;5038666;28;45322;-74
2022/07/24 03:22:46;;;;;;;;;16.67;12.33;;;;;;;;5038768;28;45388;-73
2022/07/24 03:25:11;;;;;;;;;14.67;11.67;;;;;;;;5038481;28;45349;-74
2022/07/24 03:27:37;;;;;;;;;12.00;11.00;;;;;;;;5038370;28;45414;-74
2022/07/24 03:30:03;;;;;;;;;10.67;10.67;;;;;;;;5038723;28;45280;-74
2022/07/24 03:32:28;;;;;;;;;14.33;11.00;;;;;;;;5038864;28;45572;-73
2022/07/24 03:34:54;;;;;;;;;12.00;10.67;;;;;;;;5038218;28;47116;-74
2022/07/24 03:37:19;;;;;;;;;10.00;9.33;;;;;;;;5038352;28;45322;-73
2022/07/24 03:39:44;;;;;;;;;11.67;10.67;;;;;;;;5038371;28;45437;-73
2022/07/24 03:42:09;;;;;;;;;10.67;10.33;;;;;;;;5038711;28;45349;-74
2022/07/24 03:44:35;;;;;;;;;13.67;12.00;;;;;;;;5038033;28;46204;-74
2022/07/24 03:47:00;;;;;;;;;13.00;12.00;;;;;;;;5038225;28;45279;-74
2022/07/24 03:49:25;;;;;;;;;40.33;33.67;;;;;;;;5038609;28;45368;-74
2022/07/24 03:51:50;;;;;;;;;12.67;12.67;;;;;;;;5038183;28;45301;-74
2022/07/24 03:54:16;;;;;;;;;13.33;13.33;;;;;;;;5038224;28;45397;-73
2022/07/24 03:56:41;;;;;;;;;13.00;12.33;;;;;;;;5037889;28;45446;-74
2022/07/24 03:59:07;;;;;;;;;12.67;11.00;;;;;;;;5038222;28;45381;-74
2022/07/24 04:01:32;;;;;;;;;12.00;11.67;;;;;;;;5038244;28;45481;-74
2022/07/24 04:04:04;;;;;;;;;14.67;10.33;;;;;;;;5037501;28;46545;-74
2022/07/24 04:06:29;;;;;;;;;14.00;13.33;;;;;;;;5038056;28;45498;-74
2022/07/24 04:08:54;;;;;;;;;14.67;13.67;;;;;;;;5037826;28;45452;-74
2022/07/24 04:11:20;;;;;;;;;12.67;10.33;;;;;;;;5038302;28;45192;-73
2022/07/24 04:13:45;;;;;;;;;13.33;12.33;;;;;;;;5037501;28;46518;-74
2022/07/24 04:16:10;;;;;;;;;19.00;12.67;;;;;;;;5037621;28;45472;-73
2022/07/24 04:18:35;;;;;;;;;13.67;13.67;;;;;;;;5037842;28;45480;-73
2022/07/24 04:21:01;;;;;;;;;15.33;12.33;;;;;;;;5037983;28;45290;-73
2022/07/24 04:23:26;;;;;;;;;18.33;15.00;;;;;;;;5037473;28;46036;-73
2022/07/24 04:25:51;;;;;;;;;15.00;14.50;;;;;;;;5037689;28;45445;-74
2022/07/24 04:28:17;;;;;;;;;16.67;12.33;;;;;;;;5037769;28;45337;-73
2022/07/24 04:30:42;;;;;;;;;15.00;13.33;;;;;;;;5037841;28;45285;-73
2022/07/24 04:33:07;;;;;;;;;12.00;12.00;;;;;;;;5037409;28;46520;-73
2022/07/24 04:35:32;;;;;;;;;14.67;12.00;;;;;;;;5037534;28;45281;-73
2022/07/24 04:37:58;;;;;;;;;13.33;12.33;;;;;;;;5037654;28;45349;-73
2022/07/24 04:40:23;;;;;;;;;16.67;16.00;;;;;;;;5037734;28;45287;-73
2022/07/24 04:42:48;;;;;;;;;19.67;12.67;;;;;;;;5037394;28;45531;-73
2022/07/24 04:45:13;;;;;;;;;14.33;12.33;;;;;;;;5037422;28;45432;-74
2022/07/24 04:47:39;;;;;;;;;11.67;11.33;;;;;;;;5037479;28;45384;-74
2022/07/24 04:50:05;;;;;;;;;14.00;13.67;;;;;;;;5037425;28;45400;-74
2022/07/24 04:52:30;;;;;;;;;15.67;14.00;;;;;;;;5036404;28;45401;-73
2022/07/24 04:54:55;;;;;;;;;13.67;12.33;;;;;;;;5037370;28;45245;-73
2022/07/24 04:57:21;;;;;;;;;13.33;12.33;;;;;;;;5037241;28;45181;-74
2022/07/24 04:59:46;;;;;;;;;30.33;29.00;;;;;;;;5037329;28;45425;-74
2022/07/24 05:02:11;;;;;;;;;12.67;12.67;;;;;;;;5037160;28;46598;-73
2022/07/24 05:04:36;;;;;;;;;15.33;14.00;;;;;;;;5036938;28;45451;-74
2022/07/24 05:07:03;;;;;;;;;12.00;10.67;;;;;;;;5037191;28;45368;-74
2022/07/24 05:09:28;;;;;;;;;9.00;7.00;;;;;;;;5037483;28;45192;-74
2022/07/24 05:11:53;;;;;;;;;10.67;10.67;;;;;;;;5036774;28;47165;-74
2022/07/24 05:14:18;;;;;;;;;14.33;11.67;;;;;;;;5037019;28;45262;-74
2022/07/24 05:16:44;;;;;;;;;15.00;9.67;;;;;;;;5036870;28;45389;-74
2022/07/24 05:19:09;;;;;;;;;16.67;13.33;;;;;;;;5037410;28;45485;-74
2022/07/24 05:21:34;;;;;;;;;15.33;14.67;;;;;;;;5038037;28;47559;-74
2022/07/24 05:24:01;;;;;;;;;14.33;12.00;;;;;;;;5040465;28;45179;-74
2022/07/24 05:26:27;;;;;;;;;12.00;9.00;;;;;;;;5040578;28;45381;-74
2022/07/24 05:28:52;;;;;;;;;13.33;10.33;;;;;;;;5040335;28;45330;-74
2022/07/24 05:31:17;;;;;;;;;12.00;10.33;;;;;;;;5040437;28;45574;-73
2022/07/24 05:33:42;;;;;;;;;9.00;6.67;;;;;;;;5040356;28;45417;-74
2022/07/24 05:36:08;;;;;;;;;14.00;9.67;;;;;;;;5040212;28;45389;-73
2022/07/24 05:38:33;;;;;;;;;7.00;7.00;;;;;;;;5040719;28;45337;-74
2022/07/24 05:40:58;;;;;;;;;8.67;8.67;;;;;;;;5040046;28;45500;-74
2022/07/24 05:43:23;;;;;;;;;9.33;7.00;;;;;;;;5040084;28;45453;-74
2022/07/24 05:45:49;;;;;;;;;7.67;7.67;;;;;;;;5040240;28;45420;-73
2022/07/24 05:48:14;;;;;;;;;7.67;6.67;;;;;;;;5040267;28;45432;-74
2022/07/24 05:50:39;;;;;;;;;11.67;8.00;;;;;;;;5039994;28;47224;-75
2022/07/24 05:53:04;;;;;;;;;9.33;8.33;;;;;;;;5040115;28;45295;-75
2022/07/24 05:55:30;;;;;;;;;12.00;7.33;;;;;;;;5040095;28;45347;-75
2022/07/24 05:57:55;;;;;;;;;7.33;6.00;;;;;;;;5040214;28;45313;-74
2022/07/24 06:00:20;;;;;;;;;9.00;9.00;;;;;;;;5039794;28;46336;-74
2022/07/24 06:02:48;;;;;;;;;5.67;5.67;;;;;;;;5039365;28;45779;-75
2022/07/24 06:05:16;;;;;;;;;10.33;7.33;;;;;;;;5039918;28;45306;-74
2022/07/24 06:07:42;;;;;;;;;6.00;6.00;;;;;;;;5040078;28;45425;-74
2022/07/24 06:10:07;;;;;;;;;8.00;8.00;;;;;;;;5039717;28;45929;-75
2022/07/24 06:12:32;;;;;;;;;5.67;5.33;;;;;;;;5039635;28;45298;-75
2022/07/24 06:14:58;;;;;;;;;6.33;5.00;;;;;;;;5039874;28;45277;-75
2022/07/24 06:17:23;;;;;;;;;7.67;6.33;;;;;;;;5040047;28;45463;-75
2022/07/24 06:19:48;;;;;;;;;6.67;6.67;;;;;;;;5039505;28;46562;-74
2022/07/24 06:22:13;;;;;;;;;7.33;7.33;;;;;;;;5039565;28;45490;-74
2022/07/24 06:24:39;;;;;;;;;6.00;5.67;;;;;;;;5039897;28;45322;-75
2022/07/24 06:27:04;;;;;;;;;6.00;5.00;;;;;;;;5039741;28;45425;-75
2022/07/24 06:29:30;;;;;;;;;5.00;4.67;;;;;;;;5039169;28;47488;-73
2022/07/24 06:31:55;;;;;;;;;7.00;7.00;;;;;;;;5039347;28;45403;-75
2022/07/24 06:34:23;;;;;;;;;5.00;5.00;;;;;;;;5039596;28;45289;-74
2022/07/24 06:36:48;;;;;;;;;6.33;5.33;;;;;;;;5039482;28;45520;-75
2022/07/24 06:39:14;;;;;;;;;5.33;5.33;;;;;;;;5039273;28;46229;-75
2022/07/24 06:41:39;;;;;;;;;7.00;6.00;;;;;;;;5039382;28;45357;-74
2022/07/24 06:44:04;;;;;;;;;7.67;5.67;;;;;;;;5039573;28;45443;-74
2022/07/24 06:46:29;;;;;;;;;8.67;6.33;;;;;;;;5039666;28;45410;-74
2022/07/24 06:48:55;;;;;;;;;5.33;5.33;;;;;;;;5039289;28;46536;-75
2022/07/24 06:51:20;;;;;;;;;7.00;5.00;;;;;;;;5039179;28;45241;-73
2022/07/24 06:53:46;;;;;;;;;5.00;4.67;;;;;;;;5038391;28;45438;-76
2022/07/24 06:56:12;;;;;;;;;6.00;6.00;;;;;;;;5039242;28;45364;-76
2022/07/24 06:58:37;;;;;;;;;6.00;6.00;;;;;;;;5038792;28;47157;-74
2022/07/24 07:01:02;;;;;;;;;4.00;4.00;;;;;;;;5039086;28;45370;-75
2022/07/24 07:03:27;;;;;;;;;4.33;4.33;;;;;;;;5038869;28;45428;-74
2022/07/24 07:05:53;;;;;;;;;6.33;6.00;;;;;;;;5039179;28;45430;-75
2022/07/24 07:08:18;;;;;;;;;7.00;7.00;;;;;;;;5038882;28;47089;-74
2022/07/24 07:10:43;;;;;;;;;7.33;5.00;;;;;;;;5038798;28;45266;-74
2022/07/24 07:13:08;;;;;;;;;10.00;7.00;;;;;;;;5039014;28;45313;-75
2022/07/24 07:15:34;;;;;;;;;7.00;5.67;;;;;;;;5038823;28;45487;-75
2022/07/24 07:17:59;;;;;;;;;5.00;5.00;;;;;;;;5038440;28;47303;-74
2022/07/24 07:20:24;;;;;;;;;8.33;7.00;;;;;;;;5038773;28;45371;-75
2022/07/24 07:22:49;;;;;;;;;10.67;7.33;;;;;;;;5038821;28;45344;-76
2022/07/24 07:25:14;;;;;;;;;9.00;7.00;;;;;;;;5039013;28;45472;-75
2022/07/24 07:27:40;;;;;;;;;7.00;7.00;;;;;;;;5038530;28;45525;-74
2022/07/24 07:30:06;;;;;;;;;10.33;8.00;;;;;;;;5038381;28;45345;-75
2022/07/24 07:32:31;;;;;;;;;6.33;6.00;;;;;;;;5038684;28;45375;-73
2022/07/24 07:34:56;;;;;;;;;9.00;7.67;;;;;;;;5038799;28;45252;-75
2022/07/24 07:37:21;;;;;;;;;6.00;6.00;;;;;;;;5038305;28;45379;-75
2022/07/24 07:39:47;;;;;;;;;8.33;7.00;;;;;;;;5038323;28;45283;-75
2022/07/24 07:42:12;;;;;;;;;7.33;7.33;;;;;;;;5038424;28;45393;-76
2022/07/24 07:44:37;;;;;;;;;10.33;7.33;;;;;;;;5037971;28;45267;-76
2022/07/24 07:47:03;;;;;;;;;9.33;7.67;;;;;;;;5038239;28;46498;-75
2022/07/24 07:49:28;;;;;;;;;8.00;7.00;;;;;;;;5038397;28;45299;-75
2022/07/24 07:51:54;;;;;;;;;9.00;8.67;;;;;;;;5038215;28;45231;-75
2022/07/24 07:54:19;;;;;;;;;8.00;8.00;;;;;;;;5038391;28;45263;-76
2022/07/24 07:56:44;;;;;;;;;9.00;9.00;;;;;;;;5038008;28;46479;-75
2022/07/24 07:59:10;;;;;;;;;6.00;6.00;;;;;;;;5037845;28;45204;-76
2022/07/24 08:01:35;;;;;;;;;6.33;6.33;;;;;;;;5038187;28;45347;-77
2022/07/24 08:04:01;;;;;;;;;9.00;8.33;;;;;;;;5037980;28;45453;-75
2022/07/24 08:06:26;;;;;;;;;10.00;8.67;;;;;;;;5038052;28;45375;-75
2022/07/24 08:08:51;;;;;;;;;7.33;6.00;;;;;;;;5037948;28;45455;-74
2022/07/24 08:11:17;;;;;;;;;6.00;6.00;;;;;;;;5038174;28;45362;-76
2022/07/24 08:13:42;;;;;;;;;6.00;6.00;;;;;;;;5038021;28;45381;-75
2022/07/24 08:16:07;;;;;;;;;6.00;6.00;;;;;;;;5037441;28;46599;-76
2022/07/24 08:18:33;;;;;;;;;5.67;5.67;;;;;;;;5037935;28;45477;-75
2022/07/24 08:20:58;;;;;;;;;6.67;6.00;;;;;;;;5037911;28;45302;-76
2022/07/24 08:23:23;;;;;;;;;7.67;7.33;;;;;;;;5038118;28;45290;-75
2022/07/24 08:25:48;;;;;;;;;7.33;7.33;;;;;;;;5037659;28;46245;-75
2022/07/24 08:28:14;;;;;;;;;9.00;9.00;;;;;;;;5037376;28;45522;-76
2022/07/24 08:30:39;;;;;;;;;8.33;8.33;;;;;;;;5037723;28;45369;-74
2022/07/24 08:33:04;;;;;;;;;7.67;7.67;;;;;;;;5037841;28;45431;-75
2022/07/24 08:35:29;;;;;;;;;5.33;5.33;;;;;;;;5037469;28;45413;-76
2022/07/24 08:37:54;;;;;;;;;6.00;6.00;;;;;;;;5037405;28;45372;-75
2022/07/24 08:40:21;;;;;;;;;7.67;7.67;;;;;;;;5037708;28;45389;-74
2022/07/24 08:42:47;;;;;;;;;8.00;8.00;;;;;;;;5037868;28;45456;-75
2022/07/24 08:45:12;;;;;;;;;16.33;13.67;;;;;;;;5036279;28;45512;-74
2022/07/24 08:47:41;;;;;;;;;10.33;9.33;;;;;;;;5037418;28;45239;-74
2022/07/24 08:50:06;;;;;;;;;10.00;8.00;;;;;;;;5037541;28;45454;-74
2022/07/24 08:52:33;;;;;;;;;8.00;8.00;;;;;;;;5037409;28;45278;-74
2022/07/24 08:54:58;;;;;;;;;9.33;8.00;;;;;;;;5037163;28;47227;-76
2022/07/24 08:57:23;;;;;;;;;9.00;7.67;;;;;;;;5039594;28;45357;-76
2022/07/24 08:59:49;;;;;;;;;11.00;9.00;;;;;;;;5040748;28;45516;-75
2022/07/24 09:02:14;;;;;;;;;10.67;8.67;;;;;;;;5040927;28;45335;-75
2022/07/24 09:04:40;;;;;;;;;8.33;8.33;;;;;;;;5040685;28;46228;-74
2022/07/24 09:07:09;;;;;;;;;8.67;7.67;;;;;;;;5040775;28;45357;-75
2022/07/24 09:09:36;;;;;;;;;9.67;8.33;;;;;;;;5040854;28;45254;-74
2022/07/24 09:12:07;;;;;;;;;9.67;9.67;;;;;;;;5040732;28;45385;-75
2022/07/24 09:14:33;;;;;;;;;11.00;10.00;;;;;;;;5040370;28;46384;-75
2022/07/24 09:17:03;;;;;;;;;9.33;9.33;;;;;;;;5040346;28;45416;-73
2022/07/24 09:19:28;;;;;;;;;10.33;9.00;;;;;;;;5040586;28;45322;-75
2022/07/24 09:21:54;;;;;;;;;9.33;7.67;;;;;;;;5040919;28;45350;-73
2022/07/24 09:24:20;;;;;;;;;10.33;9.00;;;;;;;;5040514;28;46609;-74
2022/07/24 09:26:47;;;;;;;;;14.67;9.00;;;;;;;;5040482;28;45418;-75
2022/07/24 09:29:12;;;;;;;;;7.67;7.67;;;;;;;;5040524;28;45227;-74
2022/07/24 09:31:49;;;;;;;;;11.00;9.00;;;;;;;;5040421;28;45429;-75
2022/07/24 09:34:15;;;;;;;;;10.67;8.33;;;;;;;;5040306;28;47526;-74
2022/07/24 09:36:40;;;;;;;;;8.33;7.67;;;;;;;;5040409;28;45238;-75
2022/07/24 09:39:06;;;;;;;;;8.00;8.00;;;;;;;;5040363;28;45321;-76
2022/07/24 09:41:49;;;;;;;;;9.00;9.00;;;;;;;;5040448;28;45349;-74
2022/07/24 09:44:14;;;;;;;;;8.33;8.33;;;;;;;;5039950;28;45645;-74
2022/07/24 09:46:45;;;;;;;;;8.67;7.33;;;;;;;;5039978;28;45231;-74
2022/07/24 09:49:17;;;;;;;;;11.67;7.67;;;;;;;;5040309;28;45322;-74
2022/07/24 09:51:43;;;;;;;;;10.00;9.00;;;;;;;;5040280;28;45458;-76
2022/07/24 09:54:08;;;;;;;;;10.67;10.00;;;;;;;;5039182;28;46269;-76
2022/07/24 09:56:35;;;;;;;;;10.67;10.67;;;;;;;;5040015;28;45531;-76
2022/07/24 09:59:02;;;;;;;;;9.67;8.00;;;;;;;;5039947;28;45459;-76
2022/07/24 10:01:28;;;;;;;;;12.67;11.00;;;;;;;;5040067;28;45554;-76
2022/07/24 10:03:56;;;;;;;;;8.00;8.00;;;;;;;;5039282;28;46605;-76
2022/07/24 10:06:25;;;;;;;;;9.67;9.67;;;;;;;;5039710;28;45276;-75
2022/07/24 10:08:51;;;;;;;;;9.67;9.67;;;;;;;;5039403;28;45310;-75
2022/07/24 10:11:17;;;;;;;;;15.00;10.50;;;;;;;;5040022;28;45207;-75
2022/07/24 10:13:42;;;;;;;;;6.75;6.75;;;;;;;;5039637;28;46384;-75
2022/07/24 10:16:13;;;;;;;;;18.50;16.25;;;;;;;;5039462;28;45442;-74
2022/07/24 10:18:49;;;;;;;;;14.75;14.75;;;;;;;;5039728;28;45326;-75
2022/07/24 10:21:33;;;;;;;;;19.75;16.75;;;;;;;;5039776;28;45321;-74
2022/07/24 10:24:01;;;;;;;;;25.25;23.50;;;;;;;;5039289;28;47374;-73
2022/07/24 10:26:40;;;;;;;;;24.50;22.50;;;;;;;;5039441;28;45453;-73
2022/07/24 10:29:10;;;;;;;;;29.75;28.00;;;;;;;;5039502;28;45437;-74
2022/07/24 10:31:42;;;;;;;;;36.75;31.25;;;;;;;;5039348;28;45518;-72
2022/07/24 10:34:15;;;;;;;;;7.75;7.75;;;;;;;;5039269;28;47447;-73
2022/07/24 10:36:50;;;;;;;;;38.00;32.25;;;;;;;;5039172;28;45240;-74
2022/07/24 10:39:26;;;;;;;;;21.00;19.25;;;;;;;;5039570;28;45284;-74
2022/07/24 10:42:05;;;;;;;;;22.25;22.25;;;;;;;;5039382;28;45448;-74
2022/07/24 10:44:30;;;;;;;;;17.00;16.25;;;;;;;;5039275;28;46279;-75
2022/07/24 10:46:56;;;;;;;;;9.00;9.00;;;;;;;;5039167;28;45318;-75
2022/07/24 10:49:42;;;;;;;;;12.25;10.75;;;;;;;;5039280;28;45224;-74
2022/07/24 10:52:12;;;;;;;;;5.25;5.25;;;;;;;;5039330;28;45270;-73
2022/07/24 10:54:38;;;;;;;;;11.25;11.25;;;;;;;;5038914;28;46275;-74
2022/07/24 10:57:03;;;;;;;;;22.75;22.75;;;;;;;;5038764;28;45472;-75
2022/07/24 10:59:33;;;;;;;;;8.25;8.25;;;;;;;;5039123;28;45389;-74
2022/07/24 11:02:18;;;;;;;;;8.75;8.50;;;;;;;;5038977;28;45374;-73
2022/07/24 11:04:43;;;;;;;;;8.25;7.00;;;;;;;;5038570;28;47540;-75
2022/07/24 11:07:10;;;;;;;;;10.25;10.25;;;;;;;;5038812;28;45326;-72
2022/07/24 11:09:56;;;;;;;;;9.00;9.00;;;;;;;;5039034;28;45429;-73
2022/07/24 11:12:28;;;;;;;;;10.25;10.25;;;;;;;;5038932;28;45406;-72
2022/07/24 11:15:53;;;;;;;;;10.50;10.00;;;;;;;;5038465;28;46016;-73
2022/07/24 11:17:43;;;;;;;;;6.50;6.50;;;;;;;;5038444;28;45304;-73
2022/07/24 11:20:13;;;;;;;;;8.75;8.75;;;;;;;;5037713;28;45342;-72
2022/07/24 11:22:49;;;;;;;;;10.75;10.75;;;;;;;;5038956;28;45296;-73
2022/07/24 11:25:16;;;;;;;;;7.00;7.00;;;;;;;;5038541;28;45332;-73
2022/07/24 11:27:46;;;;;;;;;9.00;8.00;;;;;;;;5038491;28;45338;-74
2022/07/24 11:30:11;;;;;;;;;2.67;2.67;;;;;;;;5038523;28;45696;-73
2022/07/24 11:32:38;;;;;;;;;0.67;0.67;;;;;;;;5038697;28;45429;-73
2022/07/24 11:35:04;;;;;;;;;10.00;10.00;;;;;;;;5038245;28;46687;-73
2022/07/24 11:37:29;;;;;;;;;9.33;9.00;;;;;;;;5038213;28;45484;-72
2022/07/24 11:39:55;;;;;;;;;10.00;9.33;;;;;;;;5038340;28;45373;-72
2022/07/24 11:42:20;;;;;;;;;8.00;8.00;;;;;;;;5038666;28;45367;-72
2022/07/24 11:44:49;;;;;;;;;11.33;11.33;;;;;;;;5038256;28;46389;-71
2022/07/24 11:47:16;;;;;;;;;13.33;13.33;;;;;;;;5038097;28;45430;-73
2022/07/24 11:49:42;;;;;;;;;7.67;7.67;;;;;;;;5038236;28;45356;-72
2022/07/24 11:52:08;;;;;;;;;10.00;10.00;;;;;;;;5038362;28;45176;-72
2022/07/24 11:54:33;;;;;;;;;6.67;5.00;;;;;;;;5037915;28;47152;-72
2022/07/24 11:56:58;;;;;;;;;24.00;20.50;;;;;;;;5038069;28;45188;-72
2022/07/24 11:59:27;;;;;;;;;15.00;15.00;;;;;;;;5038083;28;45312;-74
2022/07/24 12:02:01;;;;;;;;;9.33;8.67;;;;;;;;5038166;28;45349;-73
2022/07/24 12:04:27;;;;;;;;;7.33;6.33;;;;;;;;5037732;28;45354;-73
2022/07/24 12:06:52;;;;;;;;;8.33;8.33;;;;;;;;5037895;28;45369;-71
2022/07/24 12:09:18;;;;;;;;;10.00;10.00;;;;;;;;5037972;28;45396;-72
2022/07/24 12:11:44;;;;;;;;;7.33;7.33;;;;;;;;5037944;28;45293;-71
2022/07/24 12:14:30;;;;;;;;;9.00;8.33;;;;;;;;5037716;28;46593;-72
2022/07/24 12:16:55;;;;;;;;;13.00;10.00;;;;;;;;5037402;28;45360;-72
2022/07/24 12:19:22;;;;;;;;;9.67;8.67;;;;;;;;5037598;28;45278;-73
2022/07/24 12:21:47;;;;;;;;;9.67;8.00;;;;;;;;5037924;28;45402;-73
2022/07/24 12:24:13;;;;;;;;;11.00;9.67;;;;;;;;5037511;28;46065;-73
2022/07/24 12:26:57;;;;;;;;;8.67;8.67;;;;;;;;5037869;28;45405;-72
2022/07/24 12:29:23;;;;;;;;;8.00;8.00;;;;;;;;5037631;28;45280;-72
2022/07/24 12:31:49;;;;;;;;;11.00;11.00;;;;;;;;5037468;28;45217;-71
2022/07/24 12:34:15;;;;;;;;;9.67;9.67;;;;;;;;5037493;28;45207;-72
2022/07/24 12:36:40;;;;;;;;;8.67;8.67;;;;;;;;5037263;28;45180;-72
2022/07/24 12:39:05;;;;;;;;;10.67;10.00;;;;;;;;5037507;28;45391;-73
2022/07/24 12:41:31;;;;;;;;;8.00;7.33;;;;;;;;5037552;28;45489;-72
2022/07/24 12:43:57;;;;;;;;;9.67;9.67;;;;;;;;5037223;28;47247;-72
2022/07/24 12:46:32;;;;;;;;;12.33;10.67;;;;;;;;5037142;28;45283;-72
2022/07/24 12:49:07;;;;;;;;;10.00;8.33;;;;;;;;5037486;28;45307;-74
2022/07/24 12:51:48;;;;;;;;;10.33;10.00;;;;;;;;5037278;28;45509;-73
2022/07/24 12:54:16;;;;;;;;;11.00;10.33;;;;;;;;5037007;28;45491;-73
2022/07/24 12:56:42;;;;;;;;;9.00;9.00;;;;;;;;5037227;28;45281;-73
2022/07/24 12:59:07;;;;;;;;;10.33;9.33;;;;;;;;5037154;28;45439;-72
2022/07/24 13:01:56;;;;;;;;;11.33;11.33;;;;;;;;5037351;28;45430;-72
2022/07/24 13:04:23;;;;;;;;;13.00;11.67;;;;;;;;4975530;28;47416;-73
2022/07/24 13:06:49;;;;;;;;;10.67;9.67;;;;;;;;4975522;28;45528;-73
2022/07/24 13:09:15;;;;;;;;;8.00;8.00;;;;;;;;4975638;28;45317;-73
2022/07/24 13:11:41;;;;;;;;;9.33;9.33;;;;;;;;4975695;28;45478;-73
2022/07/24 13:14:08;;;;;;;;;8.00;6.33;;;;;;;;4975443;28;45878;-72
2022/07/24 13:16:34;;;;;;;;;7.67;7.00;;;;;;;;4975280;28;45491;-72
2022/07/24 13:19:00;;;;;;;;;13.33;10.00;;;;;;;;4975399;28;45472;-72
2022/07/24 13:21:26;;;;;;;;;9.33;7.33;;;;;;;;4975484;28;45365;-72
2022/07/24 13:23:51;;;;;;;;;8.67;7.67;;;;;;;;4975528;28;45424;-72
2022/07/24 13:26:16;;;;;;;;;8.67;8.67;;;;;;;;4975400;28;45388;-71
2022/07/24 13:28:41;;;;;;;;;11.00;9.33;;;;;;;;4975450;28;45593;-75
2022/07/24 13:31:07;;;;;;;;;8.00;8.00;;;;;;;;4975526;28;45338;-76
2022/07/24 13:33:32;;;;;;;;;9.33;9.33;;;;;;;;4974947;28;46619;-76
2022/07/24 13:35:57;;;;;;;;;9.00;8.00;;;;;;;;4975311;28;45554;-76
2022/07/24 13:38:23;;;;;;;;;9.00;9.00;;;;;;;;4975359;28;45486;-76
2022/07/24 13:40:48;;;;;;;;;13.67;11.00;;;;;;;;4992283;28;45310;-75
2022/07/24 13:43:13;;;;;;;;;6.50;6.50;;;;;;;;5038895;28;46404;-75
2022/07/24 13:45:39;;;;;;;;;8.33;8.33;;;;;;;;5040091;28;45511;-77
2022/07/24 13:48:04;;;;;;;;;9.00;9.00;;;;;;;;5040366;28;45708;-75
2022/07/24 13:50:29;;;;;;;;;9.00;9.00;;;;;;;;5040383;28;45320;-72
2022/07/24 13:52:55;;;;;;;;;7.33;7.00;;;;;;;;5039955;28;45266;-74
2022/07/24 13:55:20;;;;;;;;;9.33;8.33;;;;;;;;5040030;28;45321;-73
2022/07/24 13:57:46;;;;;;;;;12.00;10.33;;;;;;;;5039869;28;45322;-73
2022/07/24 14:00:12;;;;;;;;;8.67;6.00;;;;;;;;5040240;28;45547;-72
2022/07/24 14:02:37;;;;;;;;;8.67;8.67;;;;;;;;5039523;28;46694;-72
2022/07/24 14:05:02;;;;;;;;;9.00;9.00;;;;;;;;5039676;28;45397;-72
2022/07/24 14:07:27;;;;;;;;;14.00;11.00;;;;;;;;5039925;28;45337;-72
2022/07/24 14:09:54;;;;;;;;;11.00;11.00;;;;;;;;5040014;28;45459;-71
2022/07/24 14:12:20;;;;;;;;;11.00;11.00;;;;;;;;5039704;28;45607;-72
2022/07/24 14:14:45;;;;;;;;;12.00;10.33;;;;;;;;5039547;28;45419;-72
2022/07/24 14:17:10;;;;;;;;;11.00;9.67;;;;;;;;5039686;28;45464;-72
2022/07/24 14:19:35;;;;;;;;;13.00;9.00;;;;;;;;5039899;28;45454;-71
2022/07/24 14:22:01;;;;;;;;;11.67;10.33;;;;;;;;5039514;28;46110;-74
2022/07/24 14:24:26;;;;;;;;;9.33;8.33;;;;;;;;5039591;28;45342;-73